Time;durP1;ratioP1;P1;durP2;ratioP2;P2;SDS_P1;SDS_P2;PMS_P1;PMS_P2;Temp;Humidity;BMP_temperature;BMP_pressure;BME280_temperature;BME280_humidity;BME280_pressure;Samples;Min_cycle;Max_cycle;Signal;HPM_P1;HPM_P2
2021/06/09 00:01:12;;;;;;;22.45;14.73;;;;;;;-141.86;100.00;57692.91;5036435;28;20137;-68
2021/06/09 00:03:38;;;;;;;22.70;14.40;;;;;;;-141.86;100.00;57692.91;5045388;28;20041;-70
2021/06/09 00:06:04;;;;;;;28.50;14.50;;;;;;;-141.86;100.00;57692.91;5061195;28;20051;-76
2021/06/09 00:08:30;;;;;;;22.05;14.27;;;;;;;-141.86;100.00;57692.91;5063705;28;20071;-69
2021/06/09 00:10:56;;;;;;;24.17;13.65;;;;;;;-141.86;100.00;57692.91;5030820;28;20072;-70
2021/06/09 00:13:29;;;;;;;18.95;13.20;;;;;;;-141.86;100.00;57692.91;5033237;28;20045;-71
2021/06/09 00:15:59;;;;;;;21.85;13.50;;;;;;;-141.86;100.00;57692.91;5014168;28;20059;-68
2021/06/09 00:18:25;;;;;;;22.85;13.55;;;;;;;-141.86;100.00;57692.91;5043453;28;20048;-69
2021/06/09 00:20:51;;;;;;;25.83;13.32;;;;;;;-141.86;100.00;57692.91;5026717;28;20051;-71
2021/06/09 00:23:19;;;;;;;19.77;12.18;;;;;;;-141.86;100.00;57692.91;5024512;28;20037;-74
2021/06/09 00:25:51;;;;;;;19.98;12.82;;;;;;;-141.86;100.00;57692.91;5049497;28;20104;-72
2021/06/09 00:28:18;;;;;;;21.42;12.82;;;;;;;-141.86;100.00;57692.91;5027930;28;20087;-70
2021/06/09 00:30:44;;;;;;;19.92;12.30;;;;;;;-141.86;100.00;57692.91;5044782;28;20071;-75
2021/06/09 00:33:26;;;;;;;25.33;12.50;;;;;;;-141.86;100.00;57692.91;5044578;28;20049;-72
2021/06/09 00:35:55;;;;;;;18.38;11.50;;;;;;;-141.86;100.00;57692.91;5051995;28;20044;-72
2021/06/09 00:38:29;;;;;;;17.75;12.40;;;;;;;-141.86;100.00;57692.91;5029209;28;20147;-72
2021/06/09 00:40:57;;;;;;;20.23;12.13;;;;;;;-141.86;100.00;57692.91;5054341;28;20040;-73
2021/06/09 00:43:27;;;;;;;21.55;11.25;;;;;;;-141.86;100.00;57692.91;5035271;28;20049;-72
2021/06/09 00:46:12;;;;;;;23.35;12.35;;;;;;;-141.86;100.00;57692.91;5023449;28;20044;-73
2021/06/09 00:48:41;;;;;;;19.67;11.60;;;;;;;-141.86;100.00;57692.91;5052167;28;20205;-71
2021/06/09 00:51:16;;;;;;;18.70;12.25;;;;;;;-141.86;100.00;57692.91;5058540;28;20139;-73
2021/06/09 00:53:49;;;;;;;16.15;11.90;;;;;;;-141.86;100.00;57692.91;5067962;28;20052;-71
2021/06/09 00:56:17;;;;;;;23.88;14.23;;;;;;;-141.86;100.00;57692.91;5032878;28;20071;-71
2021/06/09 00:58:45;;;;;;;20.92;14.18;;;;;;;-141.86;100.00;57692.91;5048978;28;20044;-72
2021/06/09 01:01:12;;;;;;;26.83;14.95;;;;;;;-141.86;100.00;57692.91;5033872;28;20040;-73
2021/06/09 01:03:39;;;;;;;23.00;14.75;;;;;;;-141.86;100.00;57692.91;5049844;28;20048;-71
2021/06/09 01:06:06;;;;;;;20.38;15.02;;;;;;;-141.86;100.00;57692.91;5043463;28;20131;-75
2021/06/09 01:08:36;;;;;;;31.33;18.00;;;;;;;-141.86;100.00;57692.91;5034291;28;20209;-71
2021/06/09 01:11:05;;;;;;;30.27;17.08;;;;;;;-141.86;100.00;57692.91;5013135;28;20408;-74
2021/06/09 01:13:32;;;;;;;36.13;18.30;;;;;;;-141.86;100.00;57692.91;5032202;28;20043;-75
2021/06/09 01:16:00;;;;;;;28.80;18.10;;;;;;;-141.86;100.00;57692.91;5063896;28;20052;-74
2021/06/09 01:18:27;;;;;;;30.75;18.95;;;;;;;-141.86;100.00;57692.91;5030038;28;20040;-72
2021/06/09 01:20:53;;;;;;;31.80;19.52;;;;;;;-141.86;100.00;57692.91;5029476;28;20052;-70
2021/06/09 01:23:20;;;;;;;26.75;18.75;;;;;;;-141.86;100.00;57692.91;5056600;28;20555;-72
2021/06/09 01:25:49;;;;;;;40.72;20.30;;;;;;;-141.86;100.00;57692.91;5064535;28;20044;-73
2021/06/09 01:28:15;;;;;;;29.05;19.10;;;;;;;-141.86;100.00;57692.91;5042203;28;20076;-72
2021/06/09 01:30:42;;;;;;;34.25;19.75;;;;;;;-141.86;100.00;57692.91;5044129;28;20041;-72
2021/06/09 01:33:08;;;;;;;27.27;18.52;;;;;;;-141.86;100.00;57692.91;5053870;28;20044;-72
2021/06/09 01:35:35;;;;;;;29.98;18.65;;;;;;;-141.86;100.00;57692.91;5027973;28;20033;-73
2021/06/09 01:38:02;;;;;;;33.25;20.65;;;;;;;-141.86;100.00;57692.91;5035213;28;20522;-77
2021/06/09 01:40:28;;;;;;;33.83;21.00;;;;;;;-141.86;100.00;57692.91;5060778;28;20068;-73
2021/06/09 01:42:56;;;;;;;33.13;20.38;;;;;;;-141.86;100.00;57692.91;5031530;28;20129;-73
2021/06/09 01:45:25;;;;;;;33.03;20.02;;;;;;;-141.86;100.00;57692.91;5033104;28;20045;-74
2021/06/09 01:47:52;;;;;;;34.55;19.75;;;;;;;-141.86;100.00;57692.91;5013129;28;20519;-73
2021/06/09 01:50:19;;;;;;;33.10;20.10;;;;;;;-141.86;100.00;57692.91;5011794;28;20048;-73
2021/06/09 01:52:47;;;;;;;36.13;20.83;;;;;;;-141.86;100.00;57692.91;5033963;28;20040;-74
2021/06/09 01:55:15;;;;;;;30.50;20.70;;;;;;;-141.86;100.00;57692.91;5042729;28;20094;-73
2021/06/09 01:57:41;;;;;;;30.38;20.17;;;;;;;-141.86;100.00;57692.91;5046565;28;20759;-73
2021/06/09 02:00:11;;;;;;;29.48;19.27;;;;;;;-141.86;100.00;57692.91;5038970;28;20574;-70
2021/06/09 02:02:42;;;;;;;33.80;20.15;;;;;;;-141.86;100.00;57692.91;5048314;28;20045;-72
2021/06/09 02:05:11;;;;;;;34.83;20.77;;;;;;;-141.86;100.00;57692.91;5046589;28;20127;-72
2021/06/09 02:07:39;;;;;;;34.05;20.15;;;;;;;-141.86;100.00;57692.91;5045756;28;20045;-72
2021/06/09 02:10:15;;;;;;;30.95;19.35;;;;;;;-141.86;100.00;57692.91;5038851;28;20045;-74
2021/06/09 02:12:44;;;;;;;35.17;19.75;;;;;;;-141.86;100.00;57692.91;5024309;28;20186;-74
2021/06/09 02:15:12;;;;;;;35.95;19.80;;;;;;;-141.86;100.00;57692.91;5029364;28;20119;-74
2021/06/09 02:17:41;;;;;;;36.28;20.23;;;;;;;-141.86;100.00;57692.91;5053890;28;20056;-74
2021/06/09 02:20:10;;;;;;;35.17;19.23;;;;;;;-141.86;100.00;57692.91;5018076;28;20870;-73
2021/06/09 02:22:37;;;;;;;31.77;19.67;;;;;;;-141.86;100.00;57692.91;5028201;28;20123;-74
2021/06/09 02:25:07;;;;;;;39.97;20.23;;;;;;;-141.86;100.00;57692.91;5063777;28;20093;-74
2021/06/09 02:27:36;;;;;;;33.08;19.58;;;;;;;-141.86;100.00;57692.91;5043806;28;20789;-74
2021/06/09 02:30:05;;;;;;;34.22;18.88;;;;;;;-141.86;100.00;57692.91;5033014;28;20135;-71
2021/06/09 02:32:31;;;;;;;30.23;18.73;;;;;;;-141.86;100.00;57692.91;5050359;28;20049;-74
2021/06/09 02:34:57;;;;;;;31.27;17.85;;;;;;;-141.86;100.00;57692.91;5027473;28;20041;-73
2021/06/09 02:37:23;;;;;;;32.00;18.00;;;;;;;-141.86;100.00;57692.91;5053809;28;20055;-74
2021/06/09 02:39:49;;;;;;;31.70;17.02;;;;;;;-141.86;100.00;57692.91;5065620;28;20110;-74
2021/06/09 02:42:20;;;;;;;39.72;17.33;;;;;;;-141.86;100.00;57692.91;5057628;28;20095;-74
2021/06/09 02:44:48;;;;;;;31.83;18.02;;;;;;;-141.86;100.00;57692.91;5028290;28;21078;-73
2021/06/09 02:47:17;;;;;;;33.78;18.23;;;;;;;-141.86;100.00;57692.91;5065991;28;20366;-73
2021/06/09 02:49:44;;;;;;;30.75;15.85;;;;;;;-141.86;100.00;57692.91;5056071;28;20436;-76
2021/06/09 02:52:19;;;;;;;30.70;17.10;;;;;;;-141.86;100.00;57692.91;5056933;28;20718;-74
2021/06/09 02:55:21;;;;;;;36.85;17.33;;;;;;;-141.86;100.00;57692.91;5038294;28;20505;-74
2021/06/09 02:58:01;;;;;;;28.70;15.85;;;;;;;-141.86;100.00;57692.91;5056480;28;20464;-75
2021/06/09 03:00:39;;;;;;;31.55;16.85;;;;;;;-141.86;100.00;57692.91;5031490;28;20041;-75
2021/06/09 03:03:25;;;;;;;29.13;17.48;;;;;;;-141.86;100.00;57692.91;5059798;28;20094;-75
2021/06/09 03:06:17;;;;;;;29.90;18.23;;;;;;;-141.86;100.00;57692.91;5027727;28;20143;-72
2021/06/09 03:08:57;;;;;;;32.58;18.98;;;;;;;-141.86;100.00;57692.91;5037843;28;20083;-73
2021/06/09 03:11:49;;;;;;;27.20;16.15;;;;;;;-141.86;100.00;57692.91;5012241;28;20115;-72
2021/06/09 03:17:22;;;;;;;37.42;18.33;;;;;;;-141.86;100.00;57692.91;5024502;28;20083;-72
2021/06/09 03:20:11;;;;;;;35.45;18.35;;;;;;;-141.86;100.00;57692.91;5012501;28;20151;-74
2021/06/09 03:23:02;;;;;;;30.40;16.95;;;;;;;-141.86;100.00;57692.91;5019212;28;20148;-72
2021/06/09 03:25:38;;;;;;;35.20;16.98;;;;;;;-141.86;100.00;57692.91;4998661;28;20044;-73
2021/06/09 03:28:11;;;;;;;34.08;17.38;;;;;;;-141.86;100.00;57692.91;5047216;28;20044;-72
2021/06/09 03:30:41;;;;;;;32.58;16.67;;;;;;;-141.86;100.00;57692.91;5014074;28;20447;-73
2021/06/09 03:33:21;;;;;;;31.15;16.92;;;;;;;-141.86;100.00;57692.91;5055127;28;20040;-76
2021/06/09 03:35:58;;;;;;;34.88;18.13;;;;;;;-141.86;100.00;57692.91;5026349;28;20055;-74
2021/06/09 03:38:33;;;;;;;31.10;17.10;;;;;;;-141.86;100.00;57692.91;5038927;28;20048;-73
2021/06/09 03:41:06;;;;;;;33.15;18.00;;;;;;;-141.86;100.00;57692.91;5031386;28;20128;-74
2021/06/09 03:43:36;;;;;;;35.95;17.17;;;;;;;-141.86;100.00;57692.91;5036424;28;20045;-75
2021/06/09 03:46:06;;;;;;;34.33;17.35;;;;;;;-141.86;100.00;57692.91;5039383;28;20094;-76
2021/06/09 03:48:35;;;;;;;34.30;17.67;;;;;;;-141.86;100.00;57692.91;5060544;28;20795;-76
2021/06/09 03:51:03;;;;;;;36.17;18.65;;;;;;;-141.86;100.00;57692.91;5056119;28;20124;-76
2021/06/09 03:53:31;;;;;;;32.13;17.83;;;;;;;-141.86;100.00;57692.91;5027775;28;20123;-75
2021/06/09 03:56:01;;;;;;;33.80;18.70;;;;;;;-141.86;100.00;57692.91;5037585;28;20562;-74
2021/06/09 03:58:29;;;;;;;28.40;17.33;;;;;;;-141.86;100.00;57692.91;5046394;28;20795;-76
2021/06/09 04:00:56;;;;;;;26.92;16.90;;;;;;;-141.86;100.00;57692.91;5065415;28;20041;-75
2021/06/09 04:03:23;;;;;;;29.35;16.88;;;;;;;-141.86;100.00;57692.91;5053654;28;20448;-75
2021/06/09 04:05:51;;;;;;;36.08;18.67;;;;;;;-141.86;100.00;57692.91;5020698;28;20063;-76
2021/06/09 04:08:19;;;;;;;32.50;16.92;;;;;;;-141.86;100.00;57692.91;5045913;28;20049;-73
2021/06/09 04:10:47;;;;;;;34.20;17.90;;;;;;;-141.86;100.00;57692.91;5053020;28;20044;-72
2021/06/09 04:13:17;;;;;;;33.13;17.42;;;;;;;-141.86;100.00;57692.91;5025435;28;20041;-72
2021/06/09 04:15:45;;;;;;;33.70;17.45;;;;;;;-141.86;100.00;57692.91;5024707;28;20061;-73
2021/06/09 04:18:11;;;;;;;30.75;17.02;;;;;;;-141.86;100.00;57692.91;5009842;28;20185;-72
2021/06/09 04:20:39;;;;;;;27.77;16.67;;;;;;;-141.86;100.00;57692.91;5009027;28;20072;-74
2021/06/09 04:23:06;;;;;;;29.88;16.88;;;;;;;-141.86;100.00;57692.91;5025331;28;20041;-72
2021/06/09 04:25:32;;;;;;;28.52;17.33;;;;;;;-141.86;100.00;57692.91;5012061;28;20560;-72
2021/06/09 04:27:58;;;;;;;36.83;17.00;;;;;;;-141.86;100.00;57692.91;5031641;28;20242;-72
2021/06/09 04:30:24;;;;;;;28.75;17.20;;;;;;;-141.86;100.00;57692.91;5018171;28;20034;-71
2021/06/09 04:32:50;;;;;;;33.72;17.77;;;;;;;-141.86;100.00;57692.91;5031612;28;20403;-74
2021/06/09 04:35:17;;;;;;;34.30;18.20;;;;;;;-141.86;100.00;57692.91;5010129;28;20046;-73
2021/06/09 04:37:42;;;;;;;36.28;17.73;;;;;;;-141.86;100.00;57692.91;5028569;28;20476;-77
2021/06/09 04:40:18;;;;;;;28.63;17.25;;;;;;;-141.86;100.00;57692.91;5015208;28;20045;-73
2021/06/09 04:42:46;;;;;;;36.58;17.13;;;;;;;-141.86;100.00;57692.91;5025485;28;20076;-73
2021/06/09 04:45:13;;;;;;;33.67;16.65;;;;;;;-141.86;100.00;57692.91;5009395;28;20139;-82
2021/06/09 04:47:40;;;;;;;34.75;17.27;;;;;;;-141.86;100.00;57692.91;5020175;28;20049;-73
2021/06/09 04:50:07;;;;;;;30.38;17.27;;;;;;;-141.86;100.00;57692.91;5025797;28;20448;-73
2021/06/09 04:52:33;;;;;;;27.27;16.75;;;;;;;-141.86;100.00;57692.91;5014641;28;20069;-72
2021/06/09 04:54:59;;;;;;;34.30;17.73;;;;;;;-141.86;100.00;57692.91;5025183;28;20073;-73
2021/06/09 04:57:25;;;;;;;30.35;17.38;;;;;;;-141.86;100.00;57692.91;5026822;28;20053;-72
2021/06/09 04:59:51;;;;;;;32.03;16.58;;;;;;;-141.86;100.00;57692.91;5028955;28;20045;-73
2021/06/09 05:02:19;;;;;;;29.15;17.02;;;;;;;-141.86;100.00;57692.91;5010892;28;20118;-82
2021/06/09 05:04:47;;;;;;;33.00;16.70;;;;;;;-141.86;100.00;57692.91;5036268;28;20037;-73
2021/06/09 05:07:13;;;;;;;29.30;17.40;;;;;;;-141.86;100.00;57692.91;5051835;28;20190;-72
2021/06/09 05:09:40;;;;;;;27.92;16.20;;;;;;;-141.86;100.00;57692.91;5031777;28;20048;-74
2021/06/09 05:12:17;;;;;;;29.73;16.40;;;;;;;-141.86;100.00;57692.91;5011260;28;20119;-73
2021/06/09 05:14:49;;;;;;;26.80;15.93;;;;;;;-141.86;100.00;57692.91;5030819;28;20079;-72
2021/06/09 05:17:20;;;;;;;39.38;16.80;;;;;;;-141.86;100.00;57692.91;5043712;28;20516;-77
2021/06/09 05:19:48;;;;;;;33.80;16.95;;;;;;;-141.86;100.00;57692.91;5009230;28;20043;-75
2021/06/09 05:22:34;;;;;;;33.67;17.00;;;;;;;-141.86;100.00;57692.91;5049602;28;20425;-72
2021/06/09 05:25:05;;;;;;;34.67;16.90;;;;;;;-141.86;100.00;57692.91;5030603;28;20045;-75
2021/06/09 05:27:32;;;;;;;28.05;15.57;;;;;;;-141.86;100.00;57692.91;5015456;28;20417;-72
2021/06/09 05:30:01;;;;;;;28.42;16.13;;;;;;;-141.86;100.00;57692.91;5048478;28;20051;-74
2021/06/09 05:32:30;;;;;;;29.42;15.40;;;;;;;-141.86;100.00;57692.91;5035138;28;20077;-74
2021/06/09 05:34:58;;;;;;;25.42;14.90;;;;;;;-141.86;100.00;57692.91;5036009;28;20064;-75
2021/06/09 05:37:24;;;;;;;31.50;16.00;;;;;;;-141.86;100.00;57692.91;5039642;28;20160;-71
2021/06/09 05:39:58;;;;;;;33.88;16.90;;;;;;;-141.86;100.00;57692.91;5024401;28;20041;-74
2021/06/09 05:42:25;;;;;;;27.02;15.55;;;;;;;-141.86;100.00;57692.91;5009243;28;20478;-74
2021/06/09 05:44:54;;;;;;;33.70;16.33;;;;;;;-141.86;100.00;57692.91;5038198;28;20049;-73
2021/06/09 05:47:21;;;;;;;24.75;15.35;;;;;;;-141.86;100.00;57692.91;5037983;28;20056;-72
2021/06/09 05:50:03;;;;;;;38.88;16.23;;;;;;;-141.86;100.00;57692.91;5026657;28;20108;-71
2021/06/09 05:52:30;;;;;;;28.45;16.80;;;;;;;-141.86;100.00;57692.91;5026559;28;20053;-70
2021/06/09 05:54:56;;;;;;;28.63;15.68;;;;;;;-141.86;100.00;57692.91;5024705;28;20111;-71
2021/06/09 05:57:22;;;;;;;28.17;15.63;;;;;;;-141.86;100.00;57692.91;5021516;28;20045;-72
2021/06/09 05:59:50;;;;;;;35.28;15.40;;;;;;;-141.86;100.00;57692.91;5030123;28;20056;-73
2021/06/09 06:02:16;;;;;;;39.92;16.13;;;;;;;-141.86;100.00;57692.91;5023694;28;20088;-72
2021/06/09 06:04:42;;;;;;;34.13;15.38;;;;;;;-141.86;100.00;57692.91;5038180;28;20078;-72
2021/06/09 06:07:10;;;;;;;25.73;14.23;;;;;;;-141.86;100.00;57692.91;5028011;28;20041;-77
2021/06/09 06:09:38;;;;;;;31.88;15.25;;;;;;;-141.86;100.00;57692.91;5034576;28;20051;-75
2021/06/09 06:12:05;;;;;;;33.00;15.20;;;;;;;-141.86;100.00;57692.91;5034138;28;20041;-72
2021/06/09 06:14:32;;;;;;;27.23;15.30;;;;;;;-141.86;100.00;57692.91;5045621;28;20041;-72
2021/06/09 06:16:58;;;;;;;20.70;13.73;;;;;;;-141.86;100.00;57692.91;5047857;28;20052;-73
2021/06/09 06:19:35;;;;;;;25.33;14.35;;;;;;;-141.86;100.00;57692.91;5053496;28;20083;-73
2021/06/09 06:22:07;;;;;;;29.73;13.23;;;;;;;-141.86;100.00;57692.91;5053579;28;20044;-73
2021/06/09 06:24:37;;;;;;;21.10;13.43;;;;;;;-141.86;100.00;57692.91;5012908;28;20098;-74
2021/06/09 06:27:06;;;;;;;27.10;13.80;;;;;;;-141.86;100.00;57692.91;5056656;28;20043;-71
2021/06/09 06:29:32;;;;;;;23.02;13.38;;;;;;;-141.86;100.00;57692.91;5062742;28;20076;-72
2021/06/09 06:31:58;;;;;;;27.58;14.25;;;;;;;-141.86;100.00;57692.91;5034463;28;20055;-73
2021/06/09 06:34:26;;;;;;;25.17;12.82;;;;;;;-141.86;100.00;57692.91;5044621;28;20043;-73
2021/06/09 06:36:52;;;;;;;24.48;13.50;;;;;;;-141.86;100.00;57692.91;5026149;28;20039;-75
2021/06/09 06:39:18;;;;;;;28.65;13.93;;;;;;;-141.86;100.00;57692.91;5063518;28;20044;-70
2021/06/09 06:41:44;;;;;;;32.33;13.93;;;;;;;-141.86;100.00;57692.91;5053865;28;20189;-72
2021/06/09 06:44:11;;;;;;;34.40;14.80;;;;;;;-141.86;100.00;57692.91;5053577;28;20071;-74
2021/06/09 06:46:38;;;;;;;37.60;14.77;;;;;;;-141.86;100.00;57692.91;5045000;28;20098;-74
2021/06/09 06:49:04;;;;;;;23.15;15.10;;;;;;;-141.86;100.00;57692.91;5045789;28;20140;-72
2021/06/09 06:51:31;;;;;;;23.77;15.15;;;;;;;-141.86;100.00;57692.91;5035519;28;20129;-73
2021/06/09 06:53:59;;;;;;;47.05;16.52;;;;;;;-141.86;100.00;57692.91;5011417;28;20858;-72
2021/06/09 06:56:26;;;;;;;31.73;14.73;;;;;;;-141.86;100.00;57692.91;5038756;28;20390;-72
2021/06/09 06:58:53;;;;;;;38.58;14.88;;;;;;;-141.86;100.00;57692.91;5042152;28;20393;-78
2021/06/09 07:01:22;;;;;;;22.17;14.13;;;;;;;-141.86;100.00;57692.91;5026771;28;20126;-73
2021/06/09 07:03:49;;;;;;;31.42;13.43;;;;;;;-141.86;100.00;57692.91;5027584;28;20084;-72
2021/06/09 07:06:16;;;;;;;23.20;13.40;;;;;;;-141.86;100.00;57692.91;5031866;28;20106;-74
2021/06/09 07:08:46;;;;;;;20.42;12.90;;;;;;;-141.86;100.00;57692.91;5050626;28;20520;-76
2021/06/09 07:11:14;;;;;;;22.42;12.52;;;;;;;-141.86;100.00;57692.91;5052389;28;20615;-76
2021/06/09 07:13:41;;;;;;;23.67;11.68;;;;;;;-141.86;100.00;57692.91;5037931;28;20054;-76
2021/06/09 07:16:10;;;;;;;17.92;11.95;;;;;;;-141.86;100.00;57692.91;5029897;28;20059;-75
2021/06/09 07:18:42;;;;;;;18.92;11.30;;;;;;;-141.86;100.00;57692.91;5075755;28;20044;-74
2021/06/09 07:21:09;;;;;;;21.52;11.43;;;;;;;-141.86;100.00;57692.91;5072146;28;20550;-77
2021/06/09 07:23:35;;;;;;;28.63;11.40;;;;;;;-141.86;100.00;57692.91;5068607;28;20045;-73
2021/06/09 07:26:06;;;;;;;23.55;10.85;;;;;;;-141.86;100.00;57692.91;5049564;28;20059;-76
2021/06/09 07:28:46;;;;;;;27.20;12.02;;;;;;;-141.86;100.00;57692.91;5068009;28;20048;-73
2021/06/09 07:31:22;;;;;;;31.83;12.48;;;;;;;-141.86;100.00;57692.91;5037391;28;20036;-73
2021/06/09 07:33:48;;;;;;;20.98;11.70;;;;;;;-141.86;100.00;57692.91;5032614;28;20071;-73
2021/06/09 07:36:22;;;;;;;20.00;11.48;;;;;;;-141.86;100.00;57692.91;5032695;28;20086;-77
2021/06/09 07:38:55;;;;;;;21.85;11.55;;;;;;;-141.86;100.00;57692.91;5053718;28;20076;-74
2021/06/09 07:41:26;;;;;;;21.83;11.70;;;;;;;-141.86;100.00;57692.91;5033010;28;20426;-72
2021/06/09 07:43:58;;;;;;;28.02;11.95;;;;;;;-141.86;100.00;57692.91;5050178;28;20040;-73
2021/06/09 07:46:28;;;;;;;22.40;11.68;;;;;;;-141.86;100.00;57692.91;5072727;28;20036;-73
2021/06/09 07:49:03;;;;;;;19.70;10.98;;;;;;;-141.86;100.00;57692.91;5056452;28;20063;-73
2021/06/09 07:51:31;;;;;;;29.88;11.35;;;;;;;-141.86;100.00;57692.91;5065287;28;20123;-74
2021/06/09 07:54:01;;;;;;;21.08;12.50;;;;;;;-141.86;100.00;57692.91;5038237;28;20044;-74
2021/06/09 07:56:34;;;;;;;23.95;12.95;;;;;;;-141.86;100.00;57692.91;5034394;28;20048;-73
2021/06/09 07:59:02;;;;;;;22.33;12.88;;;;;;;-141.86;100.00;57692.91;5037634;28;20104;-75
2021/06/09 08:01:28;;;;;;;18.83;13.02;;;;;;;-141.86;100.00;57692.91;5040779;28;20052;-76
2021/06/09 08:03:56;;;;;;;26.10;13.02;;;;;;;-141.86;100.00;57692.91;5050547;28;20052;-77
2021/06/09 08:06:26;;;;;;;21.67;11.75;;;;;;;-141.86;100.00;57692.91;5036120;28;20082;-78
2021/06/09 08:08:52;;;;;;;24.95;11.90;;;;;;;-141.86;100.00;57692.91;5068346;28;20401;-75
2021/06/09 08:11:21;;;;;;;17.27;11.65;;;;;;;-141.86;100.00;57692.91;5032005;28;20048;-78
2021/06/09 08:13:48;;;;;;;25.85;11.80;;;;;;;-141.86;100.00;57692.91;5025117;28;20049;-72
2021/06/09 08:16:17;;;;;;;24.15;12.07;;;;;;;-141.86;100.00;57692.91;5053139;28;20110;-72
2021/06/09 08:18:44;;;;;;;34.92;13.18;;;;;;;-141.86;100.00;57692.91;5074665;28;20054;-70
2021/06/09 08:21:16;;;;;;;21.20;12.38;;;;;;;-141.86;100.00;57692.91;5031377;28;20110;-75
2021/06/09 08:23:44;;;;;;;25.52;12.13;;;;;;;-141.86;100.00;57692.91;5070487;28;20043;-73
2021/06/09 08:26:12;;;;;;;18.20;11.35;;;;;;;-141.86;100.00;57692.91;5038497;28;20130;-75
2021/06/09 08:28:42;;;;;;;27.20;10.75;;;;;;;-141.86;100.00;57692.91;5056269;28;20047;-76
2021/06/09 08:31:11;;;;;;;21.60;11.70;;;;;;;-141.86;100.00;57692.91;5062948;28;20095;-76
2021/06/09 08:33:38;;;;;;;20.38;10.90;;;;;;;-141.86;100.00;57692.91;5006563;28;20128;-66
2021/06/09 08:36:06;;;;;;;21.88;11.90;;;;;;;-141.86;100.00;57692.91;5066888;28;20151;-71
2021/06/09 08:38:39;;;;;;;18.33;10.88;;;;;;;-141.86;100.00;57692.91;5051075;28;20060;-73
2021/06/09 08:41:07;;;;;;;24.98;11.02;;;;;;;-141.86;100.00;57692.91;5046063;28;20045;-69
2021/06/09 08:43:35;;;;;;;20.85;11.40;;;;;;;-141.86;100.00;57692.91;5046432;28;20049;-72
2021/06/09 08:46:07;;;;;;;24.77;10.57;;;;;;;-141.86;100.00;57692.91;5069480;28;20047;-74
2021/06/09 08:48:36;;;;;;;17.88;10.35;;;;;;;-141.86;100.00;57692.91;5064828;28;20055;-72
2021/06/09 08:51:05;;;;;;;19.63;10.13;;;;;;;-141.86;100.00;57692.91;5035346;28;20040;-69
2021/06/09 08:53:35;;;;;;;19.15;10.23;;;;;;;-141.86;100.00;57692.91;5053247;28;20051;-71
2021/06/09 08:56:03;;;;;;;18.02;10.50;;;;;;;-141.86;100.00;57692.91;5057632;28;20049;-70
2021/06/09 08:58:29;;;;;;;23.65;10.13;;;;;;;-141.86;100.00;57692.91;5052867;28;20281;-74
2021/06/09 09:00:59;;;;;;;20.88;10.30;;;;;;;-141.86;100.00;57692.91;5031815;28;20113;-68
2021/06/09 09:03:26;;;;;;;28.85;14.77;;;;;;;-141.86;100.00;57692.91;5073056;28;20126;-69
2021/06/09 09:05:51;;;;;;;18.95;9.90;;;;;;;-141.86;100.00;57692.91;5051883;28;20110;-73
2021/06/09 09:08:18;;;;;;;26.60;13.50;;;;;;;-141.86;100.00;57692.91;5053207;28;20144;-73
2021/06/09 09:10:46;;;;;;;19.73;9.73;;;;;;;-141.86;100.00;57692.91;5059108;28;20094;-74
2021/06/09 09:13:12;;;;;;;21.52;10.23;;;;;;;-141.86;100.00;57692.91;5040221;28;20048;-72
2021/06/09 09:15:39;;;;;;;23.70;9.50;;;;;;;-141.86;100.00;57692.91;5057738;28;20053;-74
2021/06/09 09:18:07;;;;;;;16.55;9.60;;;;;;;-141.86;100.00;57692.91;5021946;28;20094;-76
2021/06/09 09:20:37;;;;;;;20.98;9.93;;;;;;;-141.86;100.00;57692.91;5044612;28;20054;-72
2021/06/09 09:23:31;;;;;;;24.63;9.55;;;;;;;-141.86;100.00;57692.91;5041322;28;20130;-73
2021/06/09 09:26:19;;;;;;;23.00;9.02;;;;;;;-141.86;100.00;57692.91;5031336;28;20110;-75
2021/06/09 09:28:49;;;;;;;20.98;9.13;;;;;;;-141.86;100.00;57692.91;5067308;28;20082;-75
2021/06/09 09:31:18;;;;;;;18.83;9.43;;;;;;;-141.86;100.00;57692.91;5054518;28;20047;-71
2021/06/09 09:34:33;;;;;;;17.55;9.50;;;;;;;-141.86;100.00;57692.91;5046973;28;20089;-76
2021/06/09 09:37:27;;;;;;;19.35;8.35;;;;;;;-141.86;100.00;57692.91;5042225;28;20052;-71
2021/06/09 09:40:17;;;;;;;14.80;8.63;;;;;;;-141.86;100.00;57692.91;5020680;28;20061;-70
2021/06/09 09:42:48;;;;;;;15.05;8.45;;;;;;;-141.86;100.00;57692.91;5047601;28;20090;-70
2021/06/09 09:45:31;;;;;;;16.45;8.02;;;;;;;-141.86;100.00;57692.91;5019892;28;20102;-72
2021/06/09 09:48:04;;;;;;;22.92;8.60;;;;;;;-141.86;100.00;57692.91;5063057;28;20048;-73
2021/06/09 09:50:47;;;;;;;18.27;8.07;;;;;;;-141.86;100.00;57692.91;5046892;28;20431;-72
2021/06/09 09:53:25;;;;;;;22.52;8.25;;;;;;;-141.86;100.00;57692.91;5064506;28;20075;-71
2021/06/09 09:56:06;;;;;;;12.48;8.02;;;;;;;-141.86;100.00;57692.91;5066413;28;20051;-72
2021/06/09 09:58:51;;;;;;;15.80;8.10;;;;;;;-141.86;100.00;57692.91;5062790;28;20040;-73
2021/06/09 10:01:23;;;;;;;15.52;8.52;;;;;;;-141.86;100.00;57692.91;5045561;28;20133;-70
2021/06/09 10:03:53;;;;;;;17.95;7.88;;;;;;;-141.86;100.00;57692.91;5046541;28;20055;-83
2021/06/09 10:06:34;;;;;;;16.95;8.10;;;;;;;-141.86;100.00;57692.91;5013160;28;20091;-69
2021/06/09 10:09:16;;;;;;;13.68;8.43;;;;;;;-141.86;100.00;57692.91;5054163;28;20047;-71
2021/06/09 10:12:08;;;;;;;18.08;9.00;;;;;;;-141.86;100.00;57692.91;5010845;28;20071;-69
2021/06/09 10:14:45;;;;;;;18.80;8.18;;;;;;;-141.86;100.00;57692.91;5045440;28;20492;-81
2021/06/09 10:17:15;;;;;;;17.48;8.40;;;;;;;-141.86;100.00;57692.91;5029688;28;20081;-76
2021/06/09 10:19:56;;;;;;;18.58;8.15;;;;;;;-141.86;100.00;57692.91;5031941;28;20040;-68
2021/06/09 10:22:34;;;;;;;13.55;7.50;;;;;;;-141.86;100.00;57692.91;5040684;28;20041;-75
2021/06/09 10:25:07;;;;;;;23.90;8.25;;;;;;;-141.86;100.00;57692.91;5026893;28;20044;-74
2021/06/09 10:27:56;;;;;;;25.67;8.98;;;;;;;-141.86;100.00;57692.91;5045850;28;20128;-77
2021/06/09 10:30:26;;;;;;;27.33;9.60;;;;;;;-141.86;100.00;57692.91;5064775;28;20043;-75
2021/06/09 10:33:00;;;;;;;16.90;8.57;;;;;;;-141.86;100.00;57692.91;5019933;28;20040;-71
2021/06/09 10:35:30;;;;;;;15.85;8.65;;;;;;;-141.86;100.00;57692.91;5068557;28;20052;-76
2021/06/09 10:37:56;;;;;;;15.07;8.93;;;;;;;-141.86;100.00;57692.91;5047569;28;20050;-74
2021/06/09 10:40:27;;;;;;;18.13;8.45;;;;;;;-141.86;100.00;57692.91;5054956;28;20444;-76
2021/06/09 10:42:57;;;;;;;17.65;8.25;;;;;;;-141.86;100.00;57692.91;5051630;28;20045;-77
2021/06/09 10:45:23;;;;;;;19.33;7.93;;;;;;;-141.86;100.00;57692.91;5071932;28;20094;-77
2021/06/09 10:47:55;;;;;;;17.15;6.90;;;;;;;-141.86;100.00;57692.91;5053230;28;20102;-76
2021/06/09 10:50:21;;;;;;;24.13;7.50;;;;;;;-141.86;100.00;57692.91;5042150;28;20076;-80
2021/06/09 10:52:48;;;;;;;13.75;6.75;;;;;;;-141.86;100.00;57692.91;5075538;28;20124;-77
2021/06/09 10:55:14;;;;;;;18.20;7.32;;;;;;;-141.86;100.00;57692.91;5055712;28;20076;-77
2021/06/09 10:57:40;;;;;;;20.75;8.48;;;;;;;-141.86;100.00;57692.91;5075369;28;20032;-81
2021/06/09 11:00:09;;;;;;;17.27;8.63;;;;;;;-141.86;100.00;57692.91;5035332;28;20071;-79
2021/06/09 11:02:36;;;;;;;15.00;7.18;;;;;;;-141.86;100.00;57692.91;5033349;28;20044;-78
2021/06/09 11:05:07;;;;;;;12.25;7.18;;;;;;;-141.86;100.00;57692.91;5019992;28;20036;-80
2021/06/09 11:07:39;;;;;;;14.77;7.90;;;;;;;-141.86;100.00;57692.91;5060957;28;20047;-73
2021/06/09 11:10:09;;;;;;;15.35;7.10;;;;;;;-141.86;100.00;57692.91;5073919;28;20071;-75
2021/06/09 11:13:00;;;;;;;20.75;6.95;;;;;;;-141.86;100.00;57692.91;5041429;28;20052;-72